Time;durP1;ratioP1;P1;durP2;ratioP2;P2;SDS_P1;SDS_P2;PMS_P1;PMS_P2;Temp;Humidity;BMP_temperature;BMP_pressure;BME280_temperature;BME280_humidity;BME280_pressure;Samples;Min_cycle;Max_cycle;Signal;HPM_P1;HPM_P2
2022/05/10 00:00:16;;;;;;;1.80;0.93;;;15.00;87.40;;;;;;4391732;32;20122;-72
2022/05/10 00:02:46;;;;;;;0.40;0.40;;;15.00;87.70;;;;;;4415781;32;20445;-72
2022/05/10 00:05:11;;;;;;;0.30;0.30;;;15.00;86.80;;;;;;4420034;32;20088;-72
2022/05/10 00:07:38;;;;;;;0.22;0.22;;;14.90;87.30;;;;;;4415627;32;20079;-72
2022/05/10 00:10:06;;;;;;;0.45;0.45;;;14.90;87.60;;;;;;4416094;32;20469;-72
2022/05/10 00:12:32;;;;;;;5.00;0.75;;;14.80;88.30;;;;;;4422769;32;20184;-72
2022/05/10 00:14:57;;;;;;;0.50;0.50;;;14.70;89.60;;;;;;4416836;32;20069;-72
2022/05/10 00:17:26;;;;;;;0.90;0.73;;;14.80;88.40;;;;;;4421593;32;20442;-72
2022/05/10 00:19:52;;;;;;;2.05;0.98;;;14.80;88.30;;;;;;4418258;32;20078;-72
2022/05/10 00:22:18;;;;;;;0.37;0.37;;;14.80;87.90;;;;;;4410013;32;20065;-72
2022/05/10 00:24:45;;;;;;;0.30;0.30;;;14.80;88.50;;;;;;4419536;32;20093;-74
2022/05/10 00:27:10;;;;;;;3.85;0.77;;;14.80;88.60;;;;;;4423674;32;20074;-72
2022/05/10 00:29:35;;;;;;;0.30;0.30;;;14.70;88.90;;;;;;4408904;32;20145;-71
2022/05/10 00:32:01;;;;;;;1.00;0.55;;;14.80;88.90;;;;;;4413818;32;20184;-73
2022/05/10 00:34:28;;;;;;;1.75;0.60;;;14.80;88.50;;;;;;4418732;32;20072;-74
2022/05/10 00:36:54;;;;;;;1.75;0.98;;;14.70;89.60;;;;;;4436147;32;20097;-72
2022/05/10 00:39:20;;;;;;;0.25;0.25;;;14.70;89.40;;;;;;4437560;32;20152;-71
2022/05/10 00:42:09;;;;;;;0.57;0.55;;;14.60;88.90;;;;;;4441492;32;20116;-72
2022/05/10 00:44:47;;;;;;;0.40;0.30;;;14.50;89.20;;;;;;4428594;32;20068;-72
2022/05/10 00:47:30;;;;;;;0.77;0.25;;;14.50;89.60;;;;;;4444024;32;20077;-72
2022/05/10 00:50:20;;;;;;;0.32;0.32;;;14.50;90.00;;;;;;4441798;32;20089;-73
2022/05/10 00:52:57;;;;;;;0.65;0.65;;;14.40;90.00;;;;;;4429120;32;20085;-73
2022/05/10 00:55:38;;;;;;;0.50;0.50;;;14.30;90.10;;;;;;4440861;32;20060;-73
2022/05/10 00:58:08;;;;;;;;;;;14.20;90.30;;;;;;4430056;32;20430;-73
2022/05/10 01:00:34;;;;;;;0.43;0.43;;;14.20;90.20;;;;;;4421082;32;19960;-72
2022/05/10 01:03:12;;;;;;;2.45;1.48;;;14.20;90.30;;;;;;4438099;32;20069;-72
2022/05/10 01:08:23;;;;;;;0.50;0.50;;;14.00;90.60;;;;;;4440079;26;20111;-73
2022/05/10 01:11:00;;;;;;;1.17;0.77;;;14.00;90.80;;;;;;4425055;32;20311;-73
2022/05/10 01:13:32;;;;;;;0.40;0.40;;;14.00;90.60;;;;;;4425246;32;20512;-73
2022/05/10 01:16:09;;;;;;;0.40;0.40;;;14.10;90.70;;;;;;4425980;32;20140;-73
2022/05/10 01:18:36;;;;;;;0.60;0.60;;;14.00;90.70;;;;;;4425696;32;20508;-73
2022/05/10 01:21:27;;;;;;;0.20;0.20;;;13.90;91.00;;;;;;4423304;32;20060;-74
2022/05/10 01:24:25;;;;;;;0.55;0.55;;;13.80;91.10;;;;;;4421139;32;20100;-73
2022/05/10 01:27:20;;;;;;;0.35;0.35;;;13.80;91.20;;;;;;4422668;32;20098;-73
2022/05/10 01:29:55;;;;;;;0.68;0.68;;;13.80;91.40;;;;;;4407920;32;20352;-73
2022/05/10 01:33:30;;;;;;;0.40;0.40;;;13.70;91.30;;;;;;4417641;32;20629;-73
2022/05/10 01:35:19;;;;;;;0.47;0.40;;;13.70;91.20;;;;;;4418155;32;21462;-73
2022/05/10 01:37:51;;;;;;;0.22;0.22;;;13.70;91.40;;;;;;4422408;32;20074;-73
2022/05/10 01:40:38;;;;;;;0.50;0.30;;;13.60;91.50;;;;;;4420246;32;20086;-73
2022/05/10 01:43:10;;;;;;;0.75;0.60;;;13.60;91.50;;;;;;4421195;32;20124;-73
2022/05/10 01:45:43;;;;;;;0.50;0.50;;;13.60;91.60;;;;;;4421054;32;20093;-73
2022/05/10 01:48:14;;;;;;;0.40;0.40;;;13.50;91.90;;;;;;4420397;32;20062;-73
2022/05/10 01:51:00;;;;;;;0.75;0.45;;;13.50;91.80;;;;;;4421294;32;20093;-73
2022/05/10 01:53:30;;;;;;;6.40;2.28;;;13.50;91.60;;;;;;4419363;32;20206;-73
2022/05/10 01:56:03;;;;;;;0.60;0.50;;;13.50;91.80;;;;;;4421279;32;20130;-73
2022/05/10 01:58:33;;;;;;;0.30;0.30;;;13.50;91.60;;;;;;4412149;32;20128;-74
2022/05/10 02:01:03;;;;;;;0.40;0.40;;;13.50;92.00;;;;;;4403042;32;20113;-73
2022/05/10 02:03:42;;;;;;;0.40;0.40;;;13.60;91.90;;;;;;4424556;32;20074;-73
2022/05/10 02:06:16;;;;;;;2.45;1.20;;;13.50;91.60;;;;;;4422742;32;20132;-73
2022/05/10 02:09:05;;;;;;;0.40;0.40;;;13.50;91.90;;;;;;4436091;32;20061;-73
2022/05/10 02:11:36;;;;;;;0.40;0.40;;;13.40;91.80;;;;;;4426560;32;20741;-73
2022/05/10 02:14:09;;;;;;;5.05;1.60;;;13.50;91.70;;;;;;4439140;32;20408;-73
2022/05/10 02:16:42;;;;;;;0.40;0.40;;;13.40;91.90;;;;;;4439074;32;20594;-73
2022/05/10 02:19:16;;;;;;;0.30;0.30;;;13.40;92.00;;;;;;4436639;32;20081;-74
2022/05/10 02:21:50;;;;;;;1.08;0.40;;;13.40;91.90;;;;;;4438483;32;20463;-73
2022/05/10 02:24:24;;;;;;;0.37;0.37;;;13.30;92.00;;;;;;4435081;32;20382;-73
2022/05/10 02:26:56;;;;;;;0.93;0.73;;;13.30;92.50;;;;;;4437507;32;20119;-73
2022/05/10 02:29:37;;;;;;;1.90;0.93;;;13.10;92.50;;;;;;4421506;32;20742;-73
2022/05/10 02:33:17;;;;;;;0.80;0.73;;;13.10;92.60;;;;;;4426584;32;20136;-73
2022/05/10 02:35:07;;;;;;;1.08;0.80;;;13.10;92.60;;;;;;4424275;32;20135;-73
2022/05/10 02:37:32;;;;;;;1.17;0.80;;;13.20;92.50;;;;;;4438738;32;20382;-73
2022/05/10 02:39:59;;;;;;;1.37;1.02;;;13.10;92.80;;;;;;4436989;32;20057;-73
2022/05/10 02:42:26;;;;;;;0.95;0.65;;;13.10;92.80;;;;;;4438792;32;20408;-73
2022/05/10 02:44:54;;;;;;;0.73;0.45;;;13.10;92.70;;;;;;4435940;32;20057;-73
2022/05/10 02:47:38;;;;;;;3.03;0.62;;;13.10;93.10;;;;;;4436569;32;20065;-73
2022/05/10 02:50:14;;;;;;;0.50;0.50;;;13.00;93.20;;;;;;4438319;32;20446;-73
2022/05/10 02:52:40;;;;;;;0.47;0.47;;;12.90;93.50;;;;;;4439396;32;20301;-73
2022/05/10 02:55:13;;;;;;;13.10;0.77;;;12.90;93.70;;;;;;4433916;32;20090;-73
2022/05/10 02:57:39;;;;;;;0.40;0.40;;;12.90;93.80;;;;;;4433628;32;20065;-73
2022/05/10 03:00:06;;;;;;;1.75;0.95;;;12.70;94.00;;;;;;4415170;32;20105;-73
2022/05/10 03:02:36;;;;;;;0.47;0.47;;;12.70;94.20;;;;;;4432901;32;20400;-73
2022/05/10 03:05:04;;;;;;;2.75;1.62;;;12.70;94.40;;;;;;4435915;32;20081;-73
2022/05/10 03:07:30;;;;;;;0.70;0.62;;;12.60;94.30;;;;;;4438806;32;20544;-73
2022/05/10 03:09:57;;;;;;;0.40;0.40;;;12.60;94.60;;;;;;4436405;32;20060;-73
2022/05/10 03:12:23;;;;;;;0.20;0.20;;;12.50;95.00;;;;;;4436970;32;20088;-73
2022/05/10 03:14:48;;;;;;;0.47;0.40;;;12.50;95.00;;;;;;4436823;32;20551;-73
2022/05/10 03:17:14;;;;;;;0.28;0.28;;;12.50;95.20;;;;;;4438322;32;20065;-73
2022/05/10 03:19:41;;;;;;;0.60;0.60;;;12.50;95.10;;;;;;4438172;32;20133;-73
2022/05/10 03:22:08;;;;;;;0.43;0.43;;;12.50;95.30;;;;;;4439308;32;20508;-73
2022/05/10 03:24:34;;;;;;;0.40;0.40;;;12.50;95.40;;;;;;4434047;32;20451;-73
2022/05/10 03:27:04;;;;;;;0.57;0.57;;;12.40;95.40;;;;;;4436239;32;20119;-73
2022/05/10 03:29:29;;;;;;;0.60;0.60;;;12.30;95.70;;;;;;4419110;32;20082;-73
2022/05/10 03:31:56;;;;;;;0.30;0.30;;;12.30;95.80;;;;;;4424450;32;20061;-73
2022/05/10 03:35:22;;;;;;;0.62;0.60;;;12.30;95.90;;;;;;4435605;32;20085;-73
2022/05/10 03:37:07;;;;;;;0.50;0.50;;;12.20;96.00;;;;;;4426409;32;20076;-74
2022/05/10 03:39:33;;;;;;;0.40;0.40;;;12.30;96.00;;;;;;4438117;32;20119;-73
2022/05/10 03:41:58;;;;;;;1.67;0.62;;;12.20;96.10;;;;;;4436602;32;20100;-73
2022/05/10 03:44:23;;;;;;;0.65;0.65;;;12.30;96.00;;;;;;4437739;32;20112;-73
2022/05/10 03:46:49;;;;;;;2.42;0.73;;;12.30;96.20;;;;;;4438374;32;20482;-73
2022/05/10 03:49:16;;;;;;;0.40;0.40;;;12.40;96.10;;;;;;4439286;32;20398;-73
2022/05/10 03:51:41;;;;;;;2.58;1.65;;;12.30;96.00;;;;;;4438755;32;20546;-73
2022/05/10 03:54:07;;;;;;;0.40;0.40;;;12.30;96.30;;;;;;4436777;32;20081;-73
2022/05/10 03:56:34;;;;;;;5.78;0.62;;;12.30;96.40;;;;;;4436246;32;20068;-73
2022/05/10 03:58:59;;;;;;;0.65;0.60;;;12.20;96.40;;;;;;4423159;32;20152;-73
2022/05/10 04:01:24;;;;;;;0.40;0.40;;;12.30;96.30;;;;;;4421651;32;20081;-74
2022/05/10 04:03:50;;;;;;;1.12;0.55;;;12.30;96.40;;;;;;4437334;32;20100;-73
2022/05/10 04:06:16;;;;;;;1.10;0.88;;;12.20;97.00;;;;;;4436050;32;20519;-73
2022/05/10 04:08:41;;;;;;;0.62;0.45;;;12.20;97.00;;;;;;4435665;32;20081;-73
2022/05/10 04:11:10;;;;;;;2.22;0.93;;;12.30;96.60;;;;;;4433814;32;20073;-73
2022/05/10 04:13:36;;;;;;;1.42;1.17;;;12.40;96.70;;;;;;4436464;32;20077;-74
2022/05/10 04:16:02;;;;;;;2.97;1.73;;;12.40;96.90;;;;;;4437627;32;20064;-73
2022/05/10 04:18:27;;;;;;;1.77;0.82;;;12.40;97.00;;;;;;4434492;32;20086;-73
2022/05/10 04:20:53;;;;;;;0.60;0.60;;;12.40;97.00;;;;;;4434971;32;20090;-73
2022/05/10 04:23:19;;;;;;;0.43;0.43;;;12.40;96.80;;;;;;4400553;32;20065;-74
2022/05/10 04:25:45;;;;;;;1.90;0.80;;;12.40;96.80;;;;;;4390928;32;20089;-73
2022/05/10 04:28:11;;;;;;;1.40;0.82;;;12.40;97.10;;;;;;4384920;32;20584;-74
2022/05/10 04:30:37;;;;;;;0.70;0.70;;;12.50;96.70;;;;;;4376594;32;20517;-73
2022/05/10 04:33:03;;;;;;;0.90;0.85;;;12.40;97.10;;;;;;4388695;32;20437;-74
2022/05/10 04:35:28;;;;;;;0.50;0.50;;;12.50;96.80;;;;;;4419549;32;20084;-73
2022/05/10 04:37:54;;;;;;;0.70;0.70;;;12.50;96.80;;;;;;4433502;32;20080;-73
2022/05/10 04:41:26;;;;;;;0.40;0.40;;;12.60;96.70;;;;;;4436957;32;20096;-74
2022/05/10 04:43:05;;;;;;;0.30;0.30;;;12.60;96.80;;;;;;4425414;32;20132;-73
2022/05/10 04:45:32;;;;;;;0.73;0.73;;;12.70;96.60;;;;;;4435505;32;20080;-73
2022/05/10 04:47:57;;;;;;;0.57;0.57;;;12.70;96.70;;;;;;4439445;32;20116;-74
2022/05/10 04:50:23;;;;;;;3.90;0.75;;;12.80;96.10;;;;;;4432805;32;20085;-74
2022/05/10 04:52:49;;;;;;;3.33;2.08;;;12.90;95.60;;;;;;4412144;32;20364;-74
2022/05/10 04:55:15;;;;;;;0.55;0.50;;;13.00;95.60;;;;;;4388925;32;20151;-73
2022/05/10 04:57:41;;;;;;;0.35;0.35;;;13.10;96.00;;;;;;4423314;32;20626;-73
2022/05/10 05:00:10;;;;;;;1.75;0.70;;;13.10;95.80;;;;;;4412879;32;20125;-73
2022/05/10 05:02:36;;;;;;;0.57;0.57;;;13.20;95.80;;;;;;4414302;32;20077;-73
2022/05/10 05:05:02;;;;;;;2.72;1.00;;;13.20;95.70;;;;;;4396036;32;20101;-73
2022/05/10 05:07:27;;;;;;;0.80;0.62;;;13.30;95.10;;;;;;4393422;32;20533;-73
2022/05/10 05:09:53;;;;;;;1.08;1.00;;;13.40;94.90;;;;;;4384706;32;20964;-73
2022/05/10 05:12:19;;;;;;;0.30;0.30;;;13.40;95.20;;;;;;4388487;32;20705;-73
2022/05/10 05:14:44;;;;;;;2.22;0.47;;;13.50;95.00;;;;;;4388559;32;20128;-74
2022/05/10 05:17:10;;;;;;;5.07;1.77;;;13.60;94.70;;;;;;4404758;32;20105;-73
2022/05/10 05:19:35;;;;;;;0.32;0.30;;;13.60;94.20;;;;;;4347362;32;20304;-74
2022/05/10 05:22:01;;;;;;;0.80;0.50;;;13.70;94.40;;;;;;4350903;32;20360;-73
2022/05/10 05:24:29;;;;;;;0.50;0.50;;;13.80;93.90;;;;;;4324550;32;20333;-75
2022/05/10 05:26:55;;;;;;;2.55;0.85;;;13.90;94.20;;;;;;4343525;32;20243;-73
2022/05/10 05:29:21;;;;;;;0.60;0.60;;;14.10;93.20;;;;;;4355520;32;20679;-73
2022/05/10 05:31:48;;;;;;;0.40;0.40;;;14.10;93.50;;;;;;4338126;32;20799;-74
2022/05/10 05:34:13;;;;;;;4.03;1.00;;;14.20;93.10;;;;;;4364155;32;20233;-74
2022/05/10 05:36:40;;;;;;;0.88;0.88;;;14.30;93.10;;;;;;4355315;32;21244;-74
2022/05/10 05:39:07;;;;;;;0.43;0.43;;;14.30;93.60;;;;;;4358895;32;20553;-74
2022/05/10 05:41:33;;;;;;;0.43;0.43;;;14.30;93.40;;;;;;4373907;32;20676;-74
2022/05/10 05:43:58;;;;;;;0.35;0.35;;;14.40;93.40;;;;;;4377531;32;20512;-74
2022/05/10 05:46:25;;;;;;;0.75;0.65;;;14.50;93.30;;;;;;4399396;32;20086;-73
2022/05/10 05:48:50;;;;;;;0.90;0.88;;;14.20;93.30;;;;;;4396992;32;20213;-73
2022/05/10 05:51:16;;;;;;;0.68;0.68;;;14.20;93.70;;;;;;4393843;32;20797;-74
2022/05/10 05:53:41;;;;;;;1.42;0.55;;;14.40;93.70;;;;;;4397895;32;20116;-74
2022/05/10 05:56:10;;;;;;;0.52;0.52;;;14.70;93.60;;;;;;4404902;32;20877;-75
2022/05/10 05:58:38;;;;;;;0.68;0.68;;;14.80;93.40;;;;;;4403166;32;21638;-74
2022/05/10 06:01:11;;;;;;;0.40;0.40;;;14.90;93.20;;;;;;4385738;32;20207;-73
2022/05/10 06:03:37;;;;;;;0.65;0.50;;;14.90;92.90;;;;;;4378838;32;20635;-74
2022/05/10 06:06:02;;;;;;;4.05;0.77;;;14.90;93.10;;;;;;4371772;32;20093;-74
2022/05/10 06:08:28;;;;;;;0.65;0.65;;;14.90;93.60;;;;;;4390658;32;20812;-73
2022/05/10 06:10:55;;;;;;;1.55;1.00;;;15.00;93.70;;;;;;4403357;32;20475;-74
2022/05/10 06:13:21;;;;;;;0.45;0.45;;;15.20;93.60;;;;;;4403519;32;20524;-74
2022/05/10 06:15:47;;;;;;;0.80;0.50;;;15.30;93.30;;;;;;4414502;32;20574;-75
2022/05/10 06:18:15;;;;;;;1.17;0.77;;;15.40;93.70;;;;;;4402482;32;20250;-75
2022/05/10 06:20:40;;;;;;;2.30;1.70;;;15.50;93.60;;;;;;4399563;32;20093;-75
2022/05/10 06:23:06;;;;;;;0.30;0.30;;;15.70;93.00;;;;;;4391940;32;20101;-75
2022/05/10 06:25:34;;;;;;;7.25;0.80;;;15.80;92.50;;;;;;4403262;32;20115;-75
2022/05/10 06:27:59;;;;;;;6.35;1.75;;;15.80;92.20;;;;;;4406522;32;20077;-73
2022/05/10 06:30:25;;;;;;;11.20;1.10;;;15.80;92.70;;;;;;4394949;32;21224;-73
2022/05/10 06:32:54;;;;;;;0.68;0.30;;;15.80;93.30;;;;;;4381949;32;20085;-73
2022/05/10 06:35:19;;;;;;;0.40;0.40;;;15.80;92.90;;;;;;4372095;32;20092;-74
2022/05/10 06:38:16;;;;;;;2.05;0.70;;;15.90;92.60;;;;;;4389761;32;20068;-75
2022/05/10 06:40:30;;;;;;;0.82;0.80;;;16.00;92.80;;;;;;4395942;32;20481;-75
2022/05/10 06:42:58;;;;;;;1.42;1.12;;;16.20;92.80;;;;;;4409438;32;20254;-74
2022/05/10 06:45:24;;;;;;;0.40;0.40;;;16.20;93.20;;;;;;4411413;32;20188;-73
2022/05/10 06:47:49;;;;;;;1.15;0.95;;;16.20;93.00;;;;;;4403365;32;20098;-74
2022/05/10 06:50:18;;;;;;;1.30;0.82;;;16.20;92.90;;;;;;4397025;32;20093;-75
2022/05/10 06:52:44;;;;;;;0.32;0.32;;;16.30;93.00;;;;;;4396404;32;20651;-75
2022/05/10 06:55:10;;;;;;;1.10;0.70;;;16.40;92.90;;;;;;4404954;32;20155;-73
2022/05/10 06:57:36;;;;;;;2.55;1.58;;;16.40;92.50;;;;;;4405012;32;20742;-73
2022/05/10 07:00:05;;;;;;;0.65;0.65;;;16.50;92.70;;;;;;4402592;32;20371;-74
2022/05/10 07:02:30;;;;;;;0.50;0.50;;;16.50;92.50;;;;;;4384132;32;20266;-74
2022/05/10 07:04:56;;;;;;;0.88;0.60;;;16.60;92.70;;;;;;4378550;32;20093;-75
2022/05/10 07:07:22;;;;;;;0.82;0.70;;;16.60;93.60;;;;;;4386451;32;22052;-75
2022/05/10 07:09:48;;;;;;;0.62;0.60;;;16.70;93.00;;;;;;4407188;32;20400;-75
2022/05/10 07:12:14;;;;;;;0.88;0.88;;;16.80;92.30;;;;;;4398851;32;20093;-74
2022/05/10 07:14:39;;;;;;;1.75;0.80;;;16.90;92.50;;;;;;4405547;32;20077;-74
2022/05/10 07:17:05;;;;;;;0.30;0.30;;;16.90;92.60;;;;;;4401875;32;20084;-74
2022/05/10 07:19:30;;;;;;;30.52;1.50;;;17.10;92.50;;;;;;4392407;32;20786;-74
2022/05/10 07:21:56;;;;;;;1.10;0.73;;;17.20;92.40;;;;;;4396145;32;20159;-74
2022/05/10 07:24:21;;;;;;;0.30;0.30;;;17.30;92.50;;;;;;4398809;32;20826;-73
2022/05/10 07:26:48;;;;;;;0.52;0.52;;;17.50;92.90;;;;;;4406959;32;20089;-75
2022/05/10 07:29:15;;;;;;;2.47;1.60;;;17.70;92.30;;;;;;4392595;32;20419;-74
2022/05/10 07:31:41;;;;;;;0.73;0.73;;;17.90;92.40;;;;;;4369522;32;20350;-72
2022/05/10 07:34:06;;;;;;;2.08;1.25;;;18.10;91.60;;;;;;4349219;32;21725;-72
2022/05/10 07:36:33;;;;;;;8.88;0.35;;;18.30;91.20;;;;;;4340388;32;141571;-72
2022/05/10 07:39:02;;;;;;;0.50;0.50;;;18.50;90.60;;;;;;4377935;32;20145;-72
2022/05/10 07:41:28;;;;;;;2.37;0.50;;;18.70;90.90;;;;;;4391941;32;20101;-72
2022/05/10 07:43:53;;;;;;;1.17;0.82;;;18.80;90.60;;;;;;4395659;32;20093;-73
2022/05/10 07:46:19;;;;;;;1.02;0.85;;;18.90;90.30;;;;;;4388675;32;20165;-72
2022/05/10 07:48:45;;;;;;;2.15;0.60;;;18.90;89.80;;;;;;4378683;32;20280;-73
2022/05/10 07:51:11;;;;;;;0.40;0.40;;;18.90;90.30;;;;;;4391221;32;20069;-73
2022/05/10 07:53:36;;;;;;;0.77;0.73;;;19.00;90.60;;;;;;4383839;32;20118;-74
2022/05/10 07:56:03;;;;;;;0.45;0.45;;;19.30;90.80;;;;;;4386670;32;20476;-74
2022/05/10 07:58:29;;;;;;;2.20;1.23;;;19.50;90.40;;;;;;4387835;32;21337;-74
2022/05/10 08:00:55;;;;;;;0.32;0.32;;;19.70;89.20;;;;;;4376249;32;20170;-74
2022/05/10 08:03:23;;;;;;;0.62;0.50;;;19.90;89.40;;;;;;4358408;32;20666;-74
2022/05/10 08:05:50;;;;;;;7.78;0.93;;;20.00;87.10;;;;;;4372982;32;20904;-74
2022/05/10 08:08:18;;;;;;;0.20;0.20;;;20.10;86.50;;;;;;4389007;32;20865;-74
2022/05/10 08:10:46;;;;;;;1.17;0.73;;;20.20;86.60;;;;;;4400891;32;20170;-74
2022/05/10 08:13:14;;;;;;;0.52;0.52;;;20.30;87.90;;;;;;4403645;32;21841;-74
2022/05/10 08:15:40;;;;;;;0.95;0.73;;;20.30;87.00;;;;;;4398291;32;20315;-74
2022/05/10 08:18:07;;;;;;;0.35;0.35;;;20.30;85.70;;;;;;4395711;32;21960;-74
2022/05/10 08:20:32;;;;;;;0.60;0.60;;;20.40;86.80;;;;;;4398132;32;20334;-74
2022/05/10 08:22:58;;;;;;;1.83;0.88;;;20.60;87.90;;;;;;4405168;32;20448;-74
2022/05/10 08:25:23;;;;;;;0.85;0.68;;;20.70;85.40;;;;;;4403903;32;20373;-75
2022/05/10 08:27:49;;;;;;;2.08;0.37;;;20.90;85.40;;;;;;4399792;32;20090;-74
2022/05/10 08:30:15;;;;;;;0.40;0.40;;;21.00;84.60;;;;;;4400465;32;20090;-73
2022/05/10 08:32:42;;;;;;;0.40;0.40;;;21.00;84.40;;;;;;4385876;32;20615;-75
2022/05/10 08:35:08;;;;;;;1.83;0.65;;;21.00;85.60;;;;;;4378828;32;20916;-75
2022/05/10 08:37:37;;;;;;;0.52;0.52;;;21.00;83.90;;;;;;4385719;32;20175;-75
2022/05/10 08:40:05;;;;;;;9.40;1.20;;;21.00;83.40;;;;;;4397921;32;20363;-74
2022/05/10 08:42:33;;;;;;;0.73;0.73;;;21.00;81.40;;;;;;4405101;32;20092;-76
2022/05/10 08:45:04;;;;;;;4.10;1.15;;;20.70;81.90;;;;;;4383826;32;20678;-75
2022/05/10 08:47:31;;;;;;;2.37;1.35;;;20.80;82.50;;;;;;4406708;32;20097;-75
2022/05/10 08:50:00;;;;;;;1.45;1.00;;;20.90;82.90;;;;;;4395255;32;20291;-75
2022/05/10 08:52:31;;;;;;;2.53;0.88;;;20.90;82.60;;;;;;4409737;32;20110;-75
2022/05/10 08:54:57;;;;;;;1.02;0.80;;;21.10;82.80;;;;;;4398507;32;20173;-75
2022/05/10 08:57:46;;;;;;;14.23;0.90;;;21.30;80.80;;;;;;4405152;32;20141;-76
2022/05/10 09:00:18;;;;;;;2.85;0.88;;;21.40;81.00;;;;;;4383751;32;21938;-75
2022/05/10 09:02:54;;;;;;;2.62;0.98;;;21.60;80.20;;;;;;4374935;32;20456;-76
2022/05/10 09:05:30;;;;;;;0.40;0.40;;;21.70;79.40;;;;;;4373298;32;21121;-75
2022/05/10 09:08:25;;;;;;;0.35;0.35;;;21.90;81.00;;;;;;4385640;32;20507;-76
2022/05/10 09:10:56;;;;;;;0.22;0.22;;;22.10;77.30;;;;;;4389829;32;20089;-76
2022/05/10 09:13:23;;;;;;;0.60;0.60;;;22.00;76.70;;;;;;4399391;32;20873;-76
2022/05/10 09:15:56;;;;;;;0.85;0.62;;;22.20;79.00;;;;;;4408027;32;20140;-76
2022/05/10 09:18:25;;;;;;;0.32;0.32;;;22.50;80.10;;;;;;4389599;32;20105;-76
2022/05/10 09:21:11;;;;;;;1.75;0.95;;;22.60;73.20;;;;;;4405385;32;21069;-76
2022/05/10 09:24:00;;;;;;;0.30;0.30;;;22.70;72.90;;;;;;4364578;32;21140;-75
2022/05/10 09:26:37;;;;;;;2.10;0.52;;;22.70;71.80;;;;;;4393840;32;20672;-75
2022/05/10 09:29:12;;;;;;;0.30;0.30;;;22.80;69.90;;;;;;4395958;32;20789;-75
2022/05/10 09:34:57;;;;;;;0.50;0.45;;;23.20;71.30;;;;;;4366038;32;21204;-75
2022/05/10 09:37:32;;;;;;;0.40;0.40;;;23.40;71.40;;;;;;4378993;32;20565;-75
2022/05/10 09:40:02;;;;;;;0.50;0.50;;;23.50;70.10;;;;;;4398376;32;20876;-75
2022/05/10 09:42:31;;;;;;;0.20;0.20;;;23.60;70.60;;;;;;4410347;32;20108;-75
2022/05/10 09:45:15;;;;;;;0.20;0.20;;;23.70;70.80;;;;;;4406756;32;20507;-75
2022/05/10 09:47:54;;;;;;;0.40;0.40;;;23.80;70.70;;;;;;4389473;32;20124;-76
2022/05/10 09:50:21;;;;;;;0.40;0.40;;;24.00;70.20;;;;;;4388242;32;20595;-74
2022/05/10 09:52:48;;;;;;;0.75;0.60;;;24.00;69.00;;;;;;4396664;32;21678;-75
2022/05/10 09:55:26;;;;;;;2.95;0.40;;;24.20;70.50;;;;;;4396838;32;20101;-76
2022/05/10 09:57:52;;;;;;;2.05;0.65;;;24.10;69.50;;;;;;4396090;32;20509;-76
2022/05/10 10:00:38;;;;;;;1.50;0.73;;;24.20;69.40;;;;;;4388351;32;20401;-75
2022/05/10 10:03:03;;;;;;;0.37;0.37;;;24.40;68.80;;;;;;4372963;32;20114;-74
2022/05/10 10:05:30;;;;;;;0.62;0.60;;;24.70;70.40;;;;;;4372552;32;20084;-75
2022/05/10 10:07:57;;;;;;;0.50;0.50;;;24.60;70.80;;;;;;4391950;32;20697;-75
2022/05/10 10:10:27;;;;;;;0.30;0.30;;;24.80;69.80;;;;;;4399808;32;20575;-73
2022/05/10 10:12:53;;;;;;;0.77;0.70;;;25.00;68.70;;;;;;4399822;32;20088;-74
2022/05/10 10:15:37;;;;;;;0.85;0.73;;;25.10;70.30;;;;;;4393292;32;21410;-73
2022/05/10 10:18:06;;;;;;;2.25;1.17;;;25.20;69.90;;;;;;4367174;32;21136;-74
2022/05/10 10:20:54;;;;;;;0.52;0.43;;;25.30;68.10;;;;;;4389466;32;20253;-73
2022/05/10 10:23:25;;;;;;;0.20;0.20;;;25.40;68.10;;;;;;4378072;32;20089;-72
2022/05/10 10:25:55;;;;;;;0.35;0.30;;;25.50;68.20;;;;;;4389206;32;20248;-72
2022/05/10 10:28:35;;;;;;;0.33;0.33;;;25.20;67.90;;;;;;4383594;32;20089;-72
2022/05/10 10:31:09;;;;;;;0.20;0.20;;;25.30;67.40;;;;;;4378560;32;20106;-73
2022/05/10 10:33:43;;;;;;;0.75;0.60;;;25.70;67.90;;;;;;4360191;32;22133;-73
2022/05/10 10:36:15;;;;;;;0.57;0.30;;;26.30;67.80;;;;;;4369700;32;21212;-72
2022/05/10 10:39:06;;;;;;;0.30;0.30;;;26.50;66.50;;;;;;4394487;32;20707;-72
2022/05/10 10:41:51;;;;;;;1.60;0.75;;;26.70;64.80;;;;;;4380077;32;20167;-73
2022/05/10 10:44:23;;;;;;;0.25;0.25;;;26.50;66.60;;;;;;4393611;32;20085;-74
2022/05/10 10:47:00;;;;;;;0.50;0.50;;;26.70;66.70;;;;;;4390946;32;20096;-72
2022/05/10 10:49:35;;;;;;;0.40;0.40;;;26.80;65.10;;;;;;4386282;32;20097;-72
2022/05/10 10:52:01;;;;;;;0.65;0.57;;;27.00;66.00;;;;;;4392400;32;20388;-72
2022/05/10 10:54:29;;;;;;;8.05;2.22;;;26.90;65.20;;;;;;4384369;32;20666;-73
2022/05/10 10:56:58;;;;;;;0.20;0.20;;;26.80;65.50;;;;;;4387842;32;20810;-74
2022/05/10 10:59:41;;;;;;;0.40;0.40;;;26.90;65.00;;;;;;4377193;32;20819;-75
2022/05/10 11:02:23;;;;;;;0.47;0.47;;;27.00;64.30;;;;;;4379706;32;20116;-75
2022/05/10 11:04:54;;;;;;;0.65;0.30;;;27.10;65.20;;;;;;4371668;32;20267;-75
2022/05/10 11:07:49;;;;;;;0.70;0.52;;;27.40;63.70;;;;;;4384211;32;20210;-77
2022/05/10 11:10:51;;;;;;;0.93;0.62;;;27.30;62.30;;;;;;4378876;32;20182;-75
2022/05/10 11:13:39;;;;;;;1.62;0.70;;;27.20;66.20;;;;;;4380204;32;20228;-75
2022/05/10 11:16:29;;;;;;;0.43;0.30;;;27.50;66.00;;;;;;4370713;32;20928;-76
2022/05/10 11:19:17;;;;;;;0.30;0.28;;;27.80;63.00;;;;;;4391743;32;20585;-75
2022/05/10 11:22:09;;;;;;;0.40;0.40;;;28.20;61.30;;;;;;4397891;32;20380;-76
2022/05/10 11:25:06;;;;;;;1.87;0.60;;;28.10;60.10;;;;;;4384412;32;20967;-76
2022/05/10 11:28:09;;;;;;;0.20;0.20;;;28.20;63.40;;;;;;4384056;32;20205;-75
2022/05/10 11:30:44;;;;;;;0.40;0.40;;;28.30;60.00;;;;;;4377816;32;20842;-75
2022/05/10 11:33:37;;;;;;;0.20;0.20;;;28.00;60.20;;;;;;4388822;32;20746;-75
2022/05/10 11:36:28;;;;;;;0.00;0.00;;;27.90;60.70;;;;;;4369495;32;20085;-75
2022/05/10 11:38:56;;;;;;;0.25;0.20;;;28.00;61.40;;;;;;4375631;32;20109;-74
2022/05/10 11:41:50;;;;;;;0.30;0.30;;;28.00;61.50;;;;;;4394958;32;20517;-75
2022/05/10 11:44:35;;;;;;;0.20;0.20;;;27.90;62.10;;;;;;4389856;32;20609;-74
2022/05/10 11:47:41;;;;;;;0.30;0.30;;;27.60;60.30;;;;;;4387969;32;20121;-76
2022/05/10 11:50:15;;;;;;;0.60;0.15;;;27.60;60.70;;;;;;4381551;32;20360;-75
2022/05/10 11:53:04;;;;;;;0.30;0.30;;;27.50;61.40;;;;;;4395767;32;20098;-74
2022/05/10 11:55:50;;;;;;;0.37;0.37;;;27.40;61.30;;;;;;4372641;32;20198;-75
2022/05/10 11:58:17;;;;;;;15.98;1.17;;;27.50;62.70;;;;;;4386689;32;20619;-76
2022/05/10 12:00:50;;;;;;;1.02;0.77;;;27.60;62.20;;;;;;4386621;32;20233;-76
2022/05/10 12:03:37;;;;;;;0.80;0.40;;;27.80;63.00;;;;;;4380970;32;20435;-76
2022/05/10 12:06:23;;;;;;;0.43;0.40;;;28.10;60.20;;;;;;4362313;32;20706;-76
2022/05/10 12:08:52;;;;;;;3.10;1.08;;;28.60;60.00;;;;;;4366409;32;20834;-75
2022/05/10 12:11:37;;;;;;;0.10;0.10;;;29.20;58.20;;;;;;4394633;32;20813;-75
2022/05/10 12:21:43;;;;;;;1.00;0.43;;;29.10;58.30;;;;;;4376671;32;20125;-74
2022/05/10 12:22:50;;;;;;;0.10;0.10;;;29.20;58.50;;;;;;4378305;32;20299;-75
2022/05/10 12:25:44;;;;;;;0.00;0.00;;;29.20;58.30;;;;;;4372879;32;20237;-74
2022/05/10 12:28:47;;;;;;;0.22;0.17;;;28.90;59.20;;;;;;4370970;32;20429;-75
2022/05/10 12:31:33;;;;;;;0.37;0.37;;;29.10;59.10;;;;;;4351445;32;21098;-75
2022/05/10 12:34:03;;;;;;;0.10;0.10;;;29.40;59.00;;;;;;4336750;32;20701;-75
2022/05/10 12:36:32;;;;;;;2.50;0.57;;;29.20;58.20;;;;;;4358913;32;21211;-75
2022/05/10 12:39:20;;;;;;;2.40;0.40;;;29.00;60.30;;;;;;4377315;32;20310;-74
2022/05/10 12:41:50;;;;;;;0.73;0.50;;;28.40;58.60;;;;;;4382966;32;20092;-74
2022/05/10 12:44:50;;;;;;;0.40;0.30;;;28.20;60.20;;;;;;4390646;32;20684;-73
2022/05/10 12:47:29;;;;;;;0.82;0.50;;;28.00;60.30;;;;;;4389719;32;20934;-73
2022/05/10 12:50:11;;;;;;;0.45;0.28;;;27.80;61.10;;;;;;4390419;32;20639;-73
2022/05/10 12:52:43;;;;;;;0.37;0.37;;;28.00;59.80;;;;;;4398980;32;20476;-73
2022/05/10 12:55:16;;;;;;;0.30;0.30;;;28.40;58.70;;;;;;4403233;32;20550;-74
2022/05/10 12:58:06;;;;;;;0.20;0.20;;;28.50;58.70;;;;;;4396129;32;20743;-74
2022/05/10 13:00:38;;;;;;;0.20;0.20;;;28.90;58.20;;;;;;4382012;32;21447;-74
2022/05/10 13:03:08;;;;;;;0.13;0.13;;;29.80;57.60;;;;;;4376572;32;20113;-73
2022/05/10 13:05:47;;;;;;;;;;;30.30;56.10;;;;;;4380409;32;20395;-73
2022/05/10 13:08:44;;;;;;;0.20;0.20;;;29.80;55.70;;;;;;4385452;32;19962;-74
2022/05/10 13:11:10;;;;;;;0.35;0.20;;;28.90;57.20;;;;;;4387202;32;20098;-74
2022/05/10 13:13:37;;;;;;;0.55;0.32;;;28.50;58.10;;;;;;4407901;32;20281;-74
2022/05/10 13:16:04;;;;;;;0.40;0.40;;;28.70;57.40;;;;;;4411434;32;20413;-74
2022/05/10 13:18:30;;;;;;;1.05;0.80;;;28.90;56.80;;;;;;4402876;32;20394;-74
2022/05/10 13:20:59;;;;;;;0.98;0.80;;;29.70;55.90;;;;;;4402770;32;20077;-74
2022/05/10 13:23:30;;;;;;;0.40;0.40;;;30.50;54.30;;;;;;4400881;32;20764;-74